Station: Solomon Airport  

  Atmospheric Gas Attenuation - ITU Rec 676-11   ----------------- dB/100km -----------------
Date Time Temp RH % AH g/m3 Dew Point Wind Direction Speed kph Gust kph Barometer mB Rainfall Since 9am 24GHz 47GHz 76GHz 122GHz 134GHz 241GHz
08/05 09:30 20.7 26 4.68 0.5 39 50 1019.9 0 11.1 18.8 23.4 60.7 46.6 157.3
08/05 09:20 20.5 26 4.63 0.5 35 44 1020.8 0 11.0 18.8 23.4 60.5 46.2 156.0
08/05 09:09 20.5 26 4.63 0.6 35 46 1020.9 0 11.0 18.8 23.4 60.5 46.2 156.0
08/05 09:00 20.4 26 4.6 0.3 33 44 1020 0 10.9 18.8 23.3 60.3 45.9 154.9
08/05 08:50 20.6 26 4.65 0.6 37 46 1021 0 11.0 18.8 23.4 60.6 46.4 156.5
08/05 08:40 19.8 27 4.61 0.4 33 44 1021.1 0 10.9 18.9 23.5 60.9 46.4 156.6
08/05 08:30 19.8 27 4.61 0.3 33 46 1019.9 0 10.9 18.9 23.5 60.8 46.3 156.4
08/05 08:20 19.7 27 4.58 0.5 39 43 1021.2 0 10.9 18.9 23.5 60.7 46.1 155.6
08/05 08:10 19.3 28 4.64 0.3 37 43 1021.2 0 11.0 19.1 23.8 61.5 47.0 158.6
08/05 08:00 19.1 28 4.59 0.2 35 46 1019.9 0 10.9 19.0 23.6 61.1 46.5 157.0
08/05 07:50 19 28 4.56 0.4 32 39 1021.3 0 10.9 19.0 23.6 61.1 46.3 156.2
08/05 07:40 18.7 28 4.48 0.2 30 33 1021.3 0 10.7 19.0 23.4 60.6 45.6 153.8
08/05 07:30 18.6 29 4.62 0.2 33 44 1019.8 0 11.0 19.1 23.8 61.8 47.1 159.0
08/05 07:20 18.6 28 4.46 0.1 30 35 1021.4 0 10.7 19.0 23.4 60.5 45.5 153.2
08/05 07:10 18.5 28 4.43 0 35 37 1021.3 0 10.6 19.0 23.3 60.3 45.2 152.3
08/05 07:00 18.2 29 4.51 -0.1 32 41 1019.6 0 10.8 19.1 23.6 61.1 46.2 155.6
08/05 06:50 18.2 29 4.51 -0.2 37 43 1020.9 0 10.8 19.1 23.6 61.2 46.2 155.8
08/05 06:40 17.9 29 4.43 -0.3 30 33 1021 0 10.6 19.1 23.5 60.7 45.5 153.4
08/05 06:30 17.9 29 4.43 -0.4 28 41 1019.4 0 10.6 19.0 23.4 60.6 45.5 153.1
08/05 06:20 18.1 28 4.33 -0.4 32 37 1020.7 0 10.4 18.9 23.1 59.7 44.4 149.2
08/05 06:09 18.3 28 4.38 -0.4 30 37 1020.7 0 10.5 18.9 23.2 60.0 44.8 150.7
08/05 06:00 18.3 28 4.38 -0.5 32 44 1019.1 0 10.5 18.9 23.1 59.9 44.7 150.5
08/05 05:50 18.4 27 4.25 -0.6 32 35 1020.5 0 10.2 18.7 22.7 58.8 43.3 145.7
08/05 05:40 18.4 27 4.25 -0.7 32 35 1020.5 0 10.2 18.7 22.7 58.8 43.3 145.7
08/05 05:30 18.6 27 4.3 -0.7 30 41 1019 0 10.3 18.7 22.8 59.0 43.7 147.0
08/05 05:19 18.6 27 4.3 -0.7 30 35 1020.3 0 10.3 18.7 22.8 59.1 43.8 147.1
08/05 05:10 18.6 27 4.3 -0.7 28 32 1020.2 0 10.3 18.7 22.8 59.1 43.7 147.1
08/05 05:00 18.8 27 4.35 -0.6 30 41 1018.7 0 10.4 18.7 22.9 59.2 44.1 148.4
08/05 04:50 18.9 26 4.21 -0.8 35 41 1020 0 10.1 18.6 22.5 58.1 42.6 143.3
08/05 04:40 19.1 26 4.26 -0.8 32 37 1019.9 0 10.2 18.6 22.6 58.3 43.1 144.7
08/05 04:30 19.2 26 4.29 -0.8 28 33 1019.9 0 10.3 18.6 22.6 58.5 43.3 145.7
08/05 04:20 19.1 26 4.26 -0.9 26 30 1019.7 0 10.2 18.6 22.6 58.3 43.0 144.7
08/05 04:10 19.2 25 4.12 -0.9 32 37 1019.7 0 9.9 18.4 22.1 57.1 41.5 139.4
08/05 04:00 19.2 26 4.29 -0.7 28 37 1018.3 0 10.3 18.5 22.6 58.4 43.2 145.5
08/05 03:49 19.3 25 4.15 -1 26 28 1019.6 0 10.0 18.4 22.2 57.3 41.8 140.3
08/05 03:40 19.2 25 4.12 -1.1 30 35 1019.7 0 9.9 18.4 22.1 57.1 41.5 139.4
08/05 03:30 19.4 25 4.17 -1.1 26 37 1018.3 0 10.0 18.4 22.2 57.3 41.9 140.7
08/05 03:20 19.6 24 4.05 -1.1 28 33 1019.6 0 9.8 18.2 21.8 56.2 40.6 136.2
08/05 03:10 19.5 25 4.2 -1.1 24 30 1019.6 0 10.1 18.4 22.3 57.5 42.2 141.8
08/05 03:00 19.4 25 4.17 -1.1 22 30 1018.5 0 10.0 18.4 22.2 57.3 41.9 140.8
08/05 02:50 19.5 25 4.2 -1.1 24 28 1019.6 0 10.1 18.4 22.3 57.5 42.2 141.8
08/05 02:40 19.7 25 4.24 -1 30 35 1019.5 0 10.2 18.4 22.3 57.7 42.5 142.9
08/05 02:30 19.7 25 4.24 -0.9 33 44 1018.3 0 10.2 18.4 22.3 57.6 42.5 142.8
08/05 02:20 19.7 25 4.24 -1 30 37 1019.7 0 10.2 18.4 22.3 57.7 42.5 143.0
08/05 02:10 19.8 25 4.27 -0.9 33 41 1019.7 0 10.2 18.4 22.4 57.9 42.8 143.9
08/05 02:00 19.7 25 4.24 -0.9 28 41 1018.7 0 10.2 18.4 22.3 57.7 42.5 142.8
08/05 01:50 19.7 25 4.24 -0.8 30 35 1019.9 0 10.2 18.4 22.3 57.8 42.5 143.0
08/05 01:40 19.8 25 4.27 -0.9 28 33 1019.9 0 10.2 18.5 22.4 57.9 42.8 143.9
08/05 01:30 19.9 24 4.12 -1.2 28 37 1018.7 0 9.9 18.2 21.9 56.5 41.1 138.1
08/05 01:20 20 24 4.15 -1.1 32 37 1019.9 0 10.0 18.3 22.0 56.8 41.5 139.2
08/05 01:10 20 24 4.15 -1.2 32 37 1019.7 0 10.0 18.3 22.0 56.8 41.4 139.2
08/05 01:00 20.1 24 4.17 -1.1 32 41 1018.6 0 10.0 18.2 22.0 56.8 41.6 139.6
08/05 00:50 20.2 23 4.02 -1.2 35 41 1019.7 0 9.7 18.1 21.5 55.6 40.0 134.2
08/05 00:40 20.4 23 4.07 -1.3 30 33 1019.6 0 9.8 18.1 21.6 55.8 40.4 135.6
08/05 00:30 20.4 23 4.07 -1.4 30 43 1018.6 0 9.8 18.0 21.6 55.8 40.4 135.5
08/05 00:20 20.6 23 4.12 -1.3 30 35 1019.7 0 9.9 18.1 21.7 56.1 40.8 137.1
08/05 00:10 20.6 23 4.12 -1.2 26 32 1019.8 0 9.9 18.1 21.7 56.1 40.8 137.1
08/05 00:00 20.7 23 4.14 -1.1 28 37 1019 0 9.9 18.1 21.7 56.2 41.0 137.6
07/05 23:50 20.7 23 4.14 -1.3 24 30 1020 0 9.9 18.1 21.8 56.2 41.0 137.7
07/05 23:40 20.9 22 4.01 -1.2 28 33 1019.8 0 9.7 17.9 21.3 55.0 39.6 132.7
07/05 23:30 21 23 4.21 -0.9 28 41 1018.9 0 10.1 18.1 21.9 56.5 41.5 139.6
07/05 23:20 21 23 4.21 -0.9 26 33 1019.9 0 10.1 18.1 21.9 56.6 41.6 139.7
07/05 23:10 21.2 23 4.26 -0.6 28 30 1019.7 0 10.2 18.2 22.0 56.9 42.0 141.2
07/05 23:00 21.2 24 4.45 -0.1 28 37 1019 0 10.6 18.4 22.6 58.4 43.9 147.9
07/05 22:50 21.2 24 4.45 0.2 32 37 1019.9 0 10.6 18.4 22.6 58.5 43.9 148.0
07/05 22:40 21.5 24 4.53 0.3 28 32 1019.8 0 10.7 18.4 22.8 58.9 44.6 150.4
07/05 22:30 21.5 25 4.71 0.7 30 39 1019 0 11.1 18.7 23.3 60.3 46.4 156.8
07/05 22:20 21.6 25 4.74 0.7 28 35 1019.7 0 11.2 18.7 23.4 60.6 46.7 157.8
07/05 22:10 21.6 25 4.74 0.8 26 32 1019.6 0 11.2 18.7 23.4 60.6 46.7 157.7
07/05 22:00 21.6 26 4.93 1.3 24 32 1018.9 0 11.6 18.9 23.9 62.1 48.6 164.6
07/05 21:50 21.7 25 4.77 1.2 26 30 1019.5 0 11.2 18.7 23.4 60.7 46.9 158.6
07/05 21:40 21.7 26 4.96 1.4 24 28 1019.4 0 11.6 18.9 24.0 62.3 48.9 165.5
07/05 21:30 21.7 26 4.96 1.4 24 33 1018.5 0 11.6 18.9 24.0 62.3 48.8 165.4
07/05 21:20 21.7 26 4.96 1.6 24 28 1019.1 0 11.6 18.9 24.0 62.3 48.9 165.5
07/05 21:10 21.8 26 4.99 1.6 22 24 1019 0 11.7 18.9 24.1 62.5 49.1 166.4
07/05 21:00 22 26 5.05 1.6 22 30 1018.4 0 11.8 19.0 24.2 62.8 49.6 168.1
07/05 20:50 21.9 26 5.02 1.5 20 24 1019.1 0 11.7 19.0 24.2 62.7 49.4 167.3
07/05 20:40 22 25 4.85 1.5 20 30 1019.1 0 11.4 18.7 23.6 61.2 47.5 160.9
07/05 20:30 22.1 26 5.07 1.7 20 26 1018.4 0 11.8 19.0 24.2 62.9 49.7 168.6
07/05 20:20 22.2 25 4.91 1.4 19 24 1018.7 0 11.5 18.8 23.7 61.5 48.0 162.6
07/05 20:10 22.5 25 4.99 1.5 26 30 1018.5 0 11.7 18.8 23.9 61.9 48.7 164.9
07/05 20:00 22.5 25 4.99 1.5 22 28 1017.8 0 11.7 18.8 23.8 61.9 48.6 164.8
07/05 19:50 22.5 25 4.99 1.5 20 24 1018.2 0 11.7 18.8 23.9 61.9 48.7 164.9
07/05 19:40 23 24 4.93 1.5 19 22 1017.9 0 11.5 18.6 23.5 61.0 47.7 161.7
07/05 19:30 23.2 24 4.99 1.5 24 32 1017.4 0 11.6 18.6 23.6 61.3 48.2 163.4
07/05 19:20 23.4 24 5.05 1.7 26 32 1017.6 0 11.7 18.7 23.8 61.7 48.7 165.2
07/05 19:10 23.4 24 5.05 1.7 17 19 1017.5 0 11.7 18.7 23.8 61.7 48.7 165.2
07/05 19:00 23.7 24 5.13 2 24 32 1017 0 11.9 18.7 23.9 62.1 49.3 167.4
07/05 18:50 23.9 23 4.98 1.9 28 32 1017.1 0 11.6 18.5 23.4 60.7 47.7 161.7
07/05 18:40 23.8 23 4.95 1.8 22 24 1017.1 0 11.5 18.4 23.3 60.5 47.4 160.8
07/05 18:30 24 24 5.22 2.2 22 30 1016.8 0 12.1 18.7 24.1 62.6 50.1 170.0
07/05 18:20 24 23 5 1.9 20 24 1016.9 0 11.6 18.5 23.4 60.8 47.8 162.1
07/05 18:10 24.4 23 5.12 2 19 22 1016.6 0 11.9 18.5 23.7 61.5 48.8 165.6
07/05 18:00 24.5 23 5.15 2 22 32 1016.5 0 11.9 18.5 23.7 61.6 49.0 166.4
07/05 17:50 24.7 23 5.21 2.2 24 30 1016.2 0 12.0 18.6 23.9 61.9 49.5 168.1
07/05 17:40 24.8 23 5.24 2.4 20 26 1016.2 0 12.1 18.6 23.9 62.1 49.7 169.0
07/05 17:30 25.1 23 5.32 2.5 22 30 1016 0 12.3 18.6 24.1 62.5 50.4 171.2
07/05 17:20 25.4 22 5.18 2.6 24 28 1015.8 0 12.0 18.4 23.6 61.2 48.8 165.6
07/05 17:10 25.6 22 5.24 2.6 24 30 1015.6 0 12.1 18.4 23.7 61.5 49.2 167.3
07/05 17:00 25.5 22 5.21 2.2 28 35 1015.8 0 12.0 18.4 23.6 61.3 49.0 166.5

Last Refresh: 08-May-2026 11:05:09

Bureau of Meteorology